createdAt,value
2022-11-22T00:00:48.224Z,6.3
2022-11-22T00:03:48.218Z,6.3
2022-11-22T00:06:48.217Z,6.3
2022-11-22T00:09:48.216Z,6.3
2022-11-22T00:12:48.213Z,6.3
2022-11-22T00:15:48.213Z,6.3
2022-11-22T00:18:48.216Z,6.3
2022-11-22T00:21:48.217Z,6.3
2022-11-22T00:24:48.213Z,6.3
2022-11-22T00:27:48.205Z,6.3
2022-11-22T00:30:48.212Z,6.3
2022-11-22T00:33:48.204Z,6.3
2022-11-22T00:36:48.203Z,6.3
2022-11-22T00:39:48.202Z,6.3
2022-11-22T00:42:48.208Z,6.3
2022-11-22T00:48:48.201Z,6.3
2022-11-22T00:51:48.236Z,6.3
2022-11-22T00:54:53.172Z,6.3
2022-11-22T00:57:48.190Z,6.3
2022-11-22T01:00:51.000Z,6.3
2022-11-22T01:03:48.185Z,6.3
2022-11-22T01:06:48.221Z,6.3
2022-11-22T01:09:48.181Z,6.3
2022-11-22T01:12:48.176Z,6.3
2022-11-22T01:15:48.178Z,6.3
2022-11-22T01:18:48.302Z,6.3
2022-11-22T01:21:48.180Z,6.3
2022-11-22T01:27:48.183Z,6.3
2022-11-22T01:30:48.183Z,6.2
2022-11-22T01:33:48.179Z,6.2
2022-11-22T01:36:48.182Z,6.2
2022-11-22T01:39:48.175Z,6.2
2022-11-22T01:42:48.174Z,6.2
2022-11-22T01:45:48.182Z,6.2
2022-11-22T01:48:48.174Z,6.2
2022-11-22T01:51:48.171Z,6.2
2022-11-22T01:54:48.174Z,6.2
2022-11-22T01:57:48.169Z,6.2
2022-11-22T02:00:48.259Z,6.2
2022-11-22T02:03:48.174Z,6.2
2022-11-22T02:09:48.180Z,6.2
2022-11-22T02:12:48.170Z,6.2
2022-11-22T02:15:48.162Z,6.2
2022-11-22T02:18:48.159Z,6.2
2022-11-22T02:21:48.165Z,6.2
2022-11-22T02:24:48.156Z,6.2
2022-11-22T02:27:48.152Z,6.2
2022-11-22T02:30:48.158Z,6.2
2022-11-22T02:33:48.157Z,6.2
2022-11-22T02:36:48.154Z,6.2
2022-11-22T02:39:48.152Z,6.2
2022-11-22T02:42:48.161Z,6.2
2022-11-22T02:45:48.152Z,6.2
2022-11-22T02:48:48.150Z,6.3
2022-11-22T02:51:48.149Z,6.3
2022-11-22T02:54:48.151Z,6.3
2022-11-22T02:57:48.147Z,6.3
2022-11-22T03:00:48.167Z,6.3
2022-11-22T03:03:48.143Z,6.3
2022-11-22T03:06:48.140Z,6.3
2022-11-22T03:09:48.141Z,6.3
2022-11-22T03:12:48.142Z,6.3
2022-11-22T03:15:48.139Z,6.3
2022-11-22T03:18:48.132Z,6.3
2022-11-22T03:21:48.145Z,6.3
2022-11-22T03:24:48.137Z,6.3
2022-11-22T03:27:48.135Z,6.3
2022-11-22T03:30:48.144Z,6.4
2022-11-22T03:33:48.137Z,6.4
2022-11-22T03:36:48.141Z,6.4
2022-11-22T03:39:48.142Z,6.4
2022-11-22T03:42:48.137Z,6.4
2022-11-22T03:45:48.140Z,6.4
2022-11-22T03:48:48.141Z,6.4
2022-11-22T03:54:48.135Z,6.5
2022-11-22T03:57:48.137Z,6.5
2022-11-22T04:00:48.142Z,6.5
2022-11-22T04:03:48.134Z,6.5
2022-11-22T04:06:48.132Z,6.5
2022-11-22T04:09:48.132Z,6.5
2022-11-22T04:12:48.130Z,6.5
2022-11-22T04:15:48.142Z,6.5
2022-11-22T04:18:48.129Z,6.5
2022-11-22T04:21:48.134Z,6.6
2022-11-22T04:24:48.132Z,6.6
2022-11-22T04:27:48.130Z,6.6
2022-11-22T04:30:48.128Z,6.6
2022-11-22T04:33:48.128Z,6.6
2022-11-22T04:36:48.121Z,6.6
2022-11-22T04:39:48.123Z,6.6
2022-11-22T04:42:48.131Z,6.6
2022-11-22T04:45:48.131Z,6.6
2022-11-22T04:48:48.119Z,6.6
2022-11-22T04:51:48.125Z,6.6
2022-11-22T04:54:48.117Z,6.7
2022-11-22T04:57:48.117Z,6.7
2022-11-22T05:00:48.160Z,6.7
2022-11-22T05:03:48.116Z,6.7
2022-11-22T05:06:48.111Z,6.7
2022-11-22T05:09:48.114Z,6.7
2022-11-22T05:12:48.111Z,6.7
2022-11-22T05:15:48.107Z,6.7
2022-11-22T05:21:48.107Z,6.7
2022-11-22T05:24:48.103Z,6.7
2022-11-22T05:27:48.105Z,6.7
2022-11-22T05:30:48.106Z,6.7
2022-11-22T05:33:48.115Z,6.7
2022-11-22T05:36:48.105Z,6.7
2022-11-22T05:39:48.103Z,6.7
2022-11-22T05:42:48.100Z,6.7
2022-11-22T05:45:48.100Z,6.7
2022-11-22T05:48:48.105Z,6.7
2022-11-22T05:51:48.107Z,6.6
2022-11-22T05:54:48.108Z,6.6
2022-11-22T05:57:48.101Z,6.6
2022-11-22T06:00:48.111Z,6.6
2022-11-22T06:03:48.105Z,6.6
2022-11-22T06:06:48.116Z,6.6
2022-11-22T06:09:48.100Z,6.5
2022-11-22T06:12:48.104Z,6.5
2022-11-22T06:15:48.124Z,6.5
2022-11-22T06:18:48.139Z,6.5
2022-11-22T06:21:48.117Z,6.5
2022-11-22T06:24:48.114Z,6.5
2022-11-22T06:27:48.108Z,6.5
2022-11-22T06:30:48.106Z,6.5
2022-11-22T06:33:48.108Z,6.5
2022-11-22T06:36:48.125Z,6.4
2022-11-22T06:39:48.105Z,6.4
2022-11-22T06:42:48.102Z,6.4
2022-11-22T06:45:48.117Z,6.4
2022-11-22T06:48:48.111Z,6.4
2022-11-22T06:51:48.109Z,6.4
2022-11-22T06:54:48.104Z,6.4
2022-11-22T06:57:48.094Z,6.4
2022-11-22T07:00:48.165Z,6.4
2022-11-22T07:03:48.090Z,6.4
2022-11-22T07:06:48.088Z,6.3
2022-11-22T07:09:50.940Z,6.3
2022-11-22T07:12:48.092Z,6.3
2022-11-22T07:15:48.082Z,6.3
2022-11-22T07:18:48.096Z,6.3
2022-11-22T07:21:48.092Z,6.3
2022-11-22T07:24:48.092Z,6.3
2022-11-22T07:27:48.083Z,6.3
2022-11-22T07:30:48.089Z,6.3
2022-11-22T07:33:48.098Z,6.3
2022-11-22T07:36:48.074Z,6.3
2022-11-22T07:39:48.090Z,6.3
2022-11-22T07:42:48.086Z,6.3
2022-11-22T07:45:48.081Z,6.3
2022-11-22T07:48:48.079Z,6.3
2022-11-22T07:51:48.077Z,6.3
2022-11-22T07:54:48.080Z,6.4
2022-11-22T07:57:48.112Z,6.4
2022-11-22T08:00:48.078Z,6.4
2022-11-22T08:03:48.070Z,6.4
2022-11-22T08:06:48.068Z,6.4
2022-11-22T08:09:48.086Z,6.4
2022-11-22T08:12:48.058Z,6.3
2022-11-22T08:15:48.069Z,6.4
2022-11-22T08:18:48.058Z,6.4
2022-11-22T08:21:48.069Z,6.4
2022-11-22T08:24:48.066Z,6.4
2022-11-22T08:27:48.107Z,6.4
2022-11-22T08:30:48.056Z,6.5
2022-11-22T08:33:48.053Z,6.5
2022-11-22T08:36:48.069Z,6.6
2022-11-22T08:39:48.053Z,6.6
2022-11-22T08:42:48.227Z,6.6
2022-11-22T08:45:48.049Z,6.6
2022-11-22T08:48:48.047Z,6.7
2022-11-22T08:51:48.053Z,6.7
2022-11-22T08:54:48.044Z,6.7
2022-11-22T08:57:48.177Z,6.7
2022-11-22T09:00:48.043Z,6.7
2022-11-22T09:09:48.277Z,6.7
2022-11-22T09:12:48.043Z,6.7
2022-11-22T09:15:48.036Z,6.7
2022-11-22T09:18:48.048Z,6.7
2022-11-22T09:21:48.044Z,6.7
2022-11-22T09:24:48.037Z,6.7
2022-11-22T09:30:48.040Z,6.7
2022-11-22T09:33:48.030Z,6.7
2022-11-22T09:36:48.031Z,6.8
2022-11-22T09:39:48.404Z,6.8
2022-11-22T09:42:48.030Z,6.8
2022-11-22T09:45:48.028Z,6.8
2022-11-22T09:48:48.038Z,6.8
2022-11-22T09:51:48.025Z,6.8
2022-11-22T09:54:48.069Z,6.8
2022-11-22T09:57:48.019Z,6.8
2022-11-22T10:00:52.157Z,6.9
2022-11-22T10:03:48.018Z,6.9
2022-11-22T10:06:48.022Z,6.9
2022-11-22T10:09:48.028Z,6.9
2022-11-22T10:12:48.019Z,6.9
2022-11-22T10:15:48.015Z,6.9
2022-11-22T10:21:48.031Z,6.9
2022-11-22T10:24:48.010Z,6.9
2022-11-22T10:30:48.046Z,7
2022-11-22T10:33:48.009Z,7
2022-11-22T10:36:48.004Z,7
2022-11-22T10:39:48.012Z,7
2022-11-22T10:42:48.007Z,7.1
2022-11-22T10:45:48.009Z,7.1
2022-11-22T10:48:48.023Z,7.1
2022-11-22T10:51:48.003Z,7.1
2022-11-22T10:54:48.009Z,7.2
2022-11-22T10:57:48.004Z,7.2
2022-11-22T11:00:48.033Z,7.2
2022-11-22T11:03:47.999Z,7.2
2022-11-22T11:07:10.894Z,7.2
2022-11-22T11:10:12.954Z,7.2
2022-11-22T11:12:48.002Z,7.2
2022-11-22T11:15:51.334Z,7.2
2022-11-22T11:18:48.000Z,7.3
2022-11-22T11:21:47.992Z,7.3
2022-11-22T11:24:47.997Z,7.3
2022-11-22T11:27:48.000Z,7.4
2022-11-22T11:30:48.007Z,7.4
2022-11-22T11:33:48.000Z,7.4
2022-11-22T11:36:48.002Z,7.5
2022-11-22T11:39:47.998Z,7.5
2022-11-22T11:42:47.994Z,7.5
2022-11-22T11:45:48.015Z,7.5
2022-11-22T11:48:47.994Z,7.6
2022-11-22T11:51:47.988Z,7.6
2022-11-22T11:54:47.988Z,7.6
2022-11-22T11:57:47.985Z,7.6
2022-11-22T12:03:47.988Z,7.6
2022-11-22T12:06:48.006Z,7.6
2022-11-22T12:09:47.986Z,7.6
2022-11-22T12:12:48.091Z,7.7
2022-11-22T12:15:48.046Z,7.7
2022-11-22T12:18:48.042Z,7.7
2022-11-22T12:21:48.036Z,7.7
2022-11-22T12:24:57.220Z,7.8
2022-11-22T12:27:48.045Z,7.8
2022-11-22T12:30:48.028Z,7.8
2022-11-22T12:33:48.036Z,7.8
2022-11-22T12:36:48.021Z,7.8
2022-11-22T12:39:48.017Z,7.9
2022-11-22T12:42:48.025Z,7.9
2022-11-22T12:45:48.029Z,7.9
2022-11-22T12:48:49.114Z,7.9
2022-11-22T12:51:48.031Z,7.9
2022-11-22T12:54:48.021Z,8
2022-11-22T12:57:48.018Z,8
2022-11-22T13:00:48.032Z,8
2022-11-22T13:03:48.015Z,8
2022-11-22T13:06:48.051Z,8
2022-11-22T13:09:48.018Z,8
2022-11-22T13:12:48.008Z,8
2022-11-22T13:15:48.030Z,8
2022-11-22T13:18:48.049Z,8
2022-11-22T13:21:49.062Z,8
2022-11-22T13:24:48.370Z,8
2022-11-22T13:27:48.365Z,8
2022-11-22T13:30:48.371Z,8
2022-11-22T13:33:48.364Z,8
2022-11-22T13:36:48.353Z,8
2022-11-22T13:39:48.369Z,8
2022-11-22T13:45:48.360Z,8
2022-11-22T13:48:48.350Z,8
2022-11-22T13:51:48.346Z,8
2022-11-22T13:54:48.464Z,7.9
2022-11-22T13:57:48.342Z,7.9
2022-11-22T14:00:48.386Z,7.9
2022-11-22T14:03:48.343Z,7.9
2022-11-22T14:06:48.341Z,7.9
2022-11-22T14:09:48.341Z,7.9
2022-11-22T14:15:48.341Z,7.9
2022-11-22T14:21:48.342Z,7.9
2022-11-22T14:24:48.326Z,7.9
2022-11-22T14:27:48.323Z,7.9
2022-11-22T14:30:48.337Z,7.9
2022-11-22T14:33:48.335Z,7.9
2022-11-22T14:36:48.328Z,7.9
2022-11-22T14:39:48.331Z,7.9
2022-11-22T14:42:48.333Z,7.9
2022-11-22T14:45:48.329Z,7.9
2022-11-22T14:48:48.326Z,7.9
2022-11-22T14:51:48.318Z,7.9
2022-11-22T14:54:48.327Z,7.9
2022-11-22T14:57:48.327Z,7.9
2022-11-22T15:00:48.323Z,7.9
2022-11-22T15:03:48.323Z,7.9
2022-11-22T15:09:08.549Z,7.9
2022-11-22T15:09:53.232Z,7.9
2022-11-22T15:12:48.311Z,7.9
2022-11-22T15:57:48.315Z,7.7
2022-11-22T16:00:48.391Z,7.6
2022-11-22T16:03:48.319Z,7.6
2022-11-22T16:06:48.309Z,7.6
2022-11-22T16:09:48.317Z,7.6
2022-11-22T16:12:48.296Z,7.6
2022-11-22T16:15:48.317Z,7.6
2022-11-22T16:21:48.294Z,7.6
2022-11-22T16:24:48.313Z,7.6
2022-11-22T16:30:48.321Z,7.6
2022-11-22T16:33:48.307Z,7.6
2022-11-22T16:36:48.316Z,7.6
2022-11-22T16:39:48.314Z,7.6
2022-11-22T16:42:48.328Z,7.6
2022-11-22T16:45:48.293Z,7.6
2022-11-22T16:48:48.285Z,7.6
2022-11-22T16:51:48.311Z,7.6
2022-11-22T16:54:48.297Z,7.6
2022-11-22T16:57:48.293Z,7.6
2022-11-22T17:00:48.347Z,7.6
2022-11-22T17:03:48.302Z,7.6
2022-11-22T17:06:48.300Z,7.6
2022-11-22T17:09:48.305Z,7.6
2022-11-22T17:12:48.300Z,7.6
2022-11-22T17:15:48.295Z,7.6
2022-11-22T17:18:48.315Z,7.6
2022-11-22T17:21:48.309Z,7.6
2022-11-22T17:24:48.294Z,7.6
2022-11-22T17:27:52.924Z,7.6
2022-11-22T17:30:48.291Z,7.6
2022-11-22T17:33:48.289Z,7.6
2022-11-22T17:36:48.280Z,7.6
2022-11-22T17:39:48.284Z,7.6
2022-11-22T17:42:48.295Z,7.6
2022-11-22T17:45:48.285Z,7.6
2022-11-22T17:48:48.284Z,7.6
2022-11-22T17:51:48.287Z,7.6
2022-11-22T17:54:48.275Z,7.6
2022-11-22T17:57:51.664Z,7.5
2022-11-22T18:00:48.286Z,7.5
2022-11-22T18:03:48.274Z,7.5
2022-11-22T18:06:48.270Z,7.5
2022-11-22T18:09:48.279Z,7.5
2022-11-22T18:13:05.895Z,7.5
2022-11-22T18:15:48.270Z,7.5
2022-11-22T18:18:57.021Z,7.5
2022-11-22T18:24:48.263Z,7.5
2022-11-22T18:27:48.258Z,7.5
2022-11-22T18:30:48.257Z,7.5
2022-11-22T18:33:48.245Z,7.5
2022-11-22T18:36:55.649Z,7.5
2022-11-22T18:39:48.246Z,7.5
2022-11-22T18:42:48.255Z,7.5
2022-11-22T18:45:48.267Z,7.5
2022-11-22T18:48:48.284Z,7.5
2022-11-22T18:51:48.270Z,7.5
2022-11-22T18:54:48.274Z,7.5
2022-11-22T18:57:48.322Z,7.5
2022-11-22T19:00:48.322Z,7.5
2022-11-22T19:03:48.275Z,7.5
2022-11-22T19:06:48.272Z,7.5
2022-11-22T19:09:48.276Z,7.5
2022-11-22T19:12:48.267Z,7.5
2022-11-22T19:15:48.255Z,7.5
2022-11-22T19:18:48.272Z,7.5
2022-11-22T19:21:48.314Z,7.5
2022-11-22T19:24:48.266Z,7.5
2022-11-22T19:27:48.267Z,7.5
2022-11-22T19:30:48.332Z,7.5
2022-11-22T19:33:48.334Z,7.5
2022-11-22T19:36:48.344Z,7.5
2022-11-22T19:39:48.338Z,7.5
2022-11-22T19:42:48.335Z,7.5
2022-11-22T19:45:48.248Z,7.5
2022-11-22T19:48:48.386Z,7.5
2022-11-22T19:51:48.423Z,7.5
2022-11-22T19:54:48.245Z,7.5
2022-11-22T19:57:48.246Z,7.5
2022-11-22T20:00:48.309Z,7.5
2022-11-22T20:03:48.241Z,7.4
2022-11-22T20:06:50.267Z,7.4
2022-11-22T20:09:48.242Z,7.4
2022-11-22T20:12:48.238Z,7.4
2022-11-22T20:15:48.242Z,7.3
2022-11-22T20:18:48.234Z,7.3
2022-11-22T20:21:48.237Z,7.3
2022-11-22T20:24:48.245Z,7.3
2022-11-22T20:27:48.245Z,7.2
2022-11-22T20:30:48.247Z,7.2
2022-11-22T20:33:48.233Z,7.2
2022-11-22T20:36:48.236Z,7.1
2022-11-22T20:39:48.240Z,7.1
2022-11-22T20:42:48.237Z,7.1
2022-11-22T20:45:48.242Z,7.1
2022-11-22T20:48:48.238Z,7.1
2022-11-22T20:51:48.233Z,7
2022-11-22T20:54:48.236Z,7
2022-11-22T21:00:48.376Z,7
2022-11-22T21:03:48.267Z,7
2022-11-22T21:06:48.227Z,7
2022-11-22T21:09:48.229Z,7
2022-11-22T21:12:48.232Z,7
2022-11-22T21:15:48.236Z,7
2022-11-22T21:18:48.225Z,7
2022-11-22T21:21:48.238Z,7
2022-11-22T21:24:48.234Z,7
2022-11-22T21:27:48.446Z,7
2022-11-22T21:30:48.313Z,7
2022-11-22T21:33:48.310Z,7
2022-11-22T21:36:48.304Z,7
2022-11-22T21:39:48.305Z,7
2022-11-22T21:42:48.293Z,7
2022-11-22T21:45:48.287Z,7
2022-11-22T21:48:48.305Z,7
2022-11-22T21:51:48.295Z,7
2022-11-22T21:54:48.293Z,7
2022-11-22T21:57:48.292Z,7
2022-11-22T22:00:48.289Z,7
2022-11-22T22:03:48.284Z,7
2022-11-22T22:06:48.286Z,7
2022-11-22T22:09:48.296Z,6.9
2022-11-22T22:12:48.275Z,6.9
2022-11-22T22:18:48.286Z,6.9
2022-11-22T22:21:48.273Z,7
2022-11-22T22:24:48.269Z,7
2022-11-22T22:27:48.271Z,7
2022-11-22T22:30:48.263Z,7
2022-11-22T22:33:48.288Z,7
2022-11-22T22:36:48.276Z,7
2022-11-22T22:39:48.264Z,7
2022-11-22T22:42:48.266Z,7
2022-11-22T22:45:48.266Z,7
2022-11-22T22:48:48.261Z,7
2022-11-22T22:51:48.264Z,7
2022-11-22T22:54:48.262Z,7.1
2022-11-22T22:57:48.260Z,7.1
2022-11-22T23:00:48.265Z,7.1
2022-11-22T23:03:48.259Z,7.1
2022-11-22T23:06:48.262Z,7.1
2022-11-22T23:09:48.261Z,7.1
2022-11-22T23:12:48.256Z,7.2
2022-11-22T23:15:58.156Z,7.2
2022-11-22T23:18:48.264Z,7.2
2022-11-22T23:21:48.257Z,7.2
2022-11-22T23:24:48.259Z,7.2
2022-11-22T23:27:48.253Z,7.2
2022-11-22T23:30:48.253Z,7.2
2022-11-22T23:33:48.257Z,7.2
2022-11-22T23:36:48.256Z,7.2
2022-11-22T23:39:48.257Z,7.2
2022-11-22T23:42:48.241Z,7.2
2022-11-22T23:45:48.250Z,7.2
2022-11-22T23:48:48.253Z,7.2
2022-11-22T23:54:48.247Z,7.2
2022-11-22T23:57:48.246Z,7.2
